sensor_id;sensor_type;location;lat;lon;timestamp;P1;durP1;ratioP1;P2;durP2;ratioP2
29358;SDS011;16347;53.232;6.556;2024-03-08T00:00:18;55.85;;;24.65;;
29358;SDS011;16347;53.232;6.556;2024-03-08T00:02:47;49.38;;;24.00;;
29358;SDS011;16347;53.232;6.556;2024-03-08T00:05:17;54.00;;;24.35;;
29358;SDS011;16347;53.232;6.556;2024-03-08T00:07:45;46.95;;;23.13;;
29358;SDS011;16347;53.232;6.556;2024-03-08T00:10:13;50.00;;;23.85;;
29358;SDS011;16347;53.232;6.556;2024-03-08T00:12:42;51.20;;;22.95;;
29358;SDS011;16347;53.232;6.556;2024-03-08T00:15:12;50.30;;;23.73;;
29358;SDS011;16347;53.232;6.556;2024-03-08T00:17:45;55.95;;;26.17;;
29358;SDS011;16347;53.232;6.556;2024-03-08T00:20:14;58.05;;;24.45;;
29358;SDS011;16347;53.232;6.556;2024-03-08T00:22:45;54.10;;;24.60;;
29358;SDS011;16347;53.232;6.556;2024-03-08T00:25:14;60.70;;;26.08;;
29358;SDS011;16347;53.232;6.556;2024-03-08T00:27:42;53.92;;;24.83;;
29358;SDS011;16347;53.232;6.556;2024-03-08T00:30:10;54.47;;;25.23;;
29358;SDS011;16347;53.232;6.556;2024-03-08T00:32:40;52.55;;;24.25;;
29358;SDS011;16347;53.232;6.556;2024-03-08T00:35:10;54.75;;;24.95;;
29358;SDS011;16347;53.232;6.556;2024-03-08T00:37:39;60.60;;;28.00;;
29358;SDS011;16347;53.232;6.556;2024-03-08T00:40:08;49.05;;;24.52;;
29358;SDS011;16347;53.232;6.556;2024-03-08T00:42:37;56.67;;;24.58;;
29358;SDS011;16347;53.232;6.556;2024-03-08T00:45:06;59.47;;;24.90;;
29358;SDS011;16347;53.232;6.556;2024-03-08T00:47:37;57.08;;;26.27;;
29358;SDS011;16347;53.232;6.556;2024-03-08T00:50:05;55.63;;;26.58;;
29358;SDS011;16347;53.232;6.556;2024-03-08T00:52:36;63.72;;;27.23;;
29358;SDS011;16347;53.232;6.556;2024-03-08T00:55:04;57.55;;;25.23;;
29358;SDS011;16347;53.232;6.556;2024-03-08T00:57:34;55.05;;;25.33;;
29358;SDS011;16347;53.232;6.556;2024-03-08T01:00:02;52.10;;;24.40;;
29358;SDS011;16347;53.232;6.556;2024-03-08T01:02:32;59.08;;;27.20;;
29358;SDS011;16347;53.232;6.556;2024-03-08T01:05:02;58.03;;;26.45;;
29358;SDS011;16347;53.232;6.556;2024-03-08T01:07:33;58.95;;;24.90;;
29358;SDS011;16347;53.232;6.556;2024-03-08T01:10:03;56.85;;;24.83;;
29358;SDS011;16347;53.232;6.556;2024-03-08T01:12:31;58.92;;;25.67;;
29358;SDS011;16347;53.232;6.556;2024-03-08T01:14:58;56.47;;;25.80;;
29358;SDS011;16347;53.232;6.556;2024-03-08T01:17:27;56.28;;;26.75;;
29358;SDS011;16347;53.232;6.556;2024-03-08T01:19:55;56.70;;;24.70;;
29358;SDS011;16347;53.232;6.556;2024-03-08T01:22:23;63.35;;;26.20;;
29358;SDS011;16347;53.232;6.556;2024-03-08T01:24:50;55.35;;;25.83;;
29358;SDS011;16347;53.232;6.556;2024-03-08T01:27:20;62.38;;;26.90;;
29358;SDS011;16347;53.232;6.556;2024-03-08T01:29:48;51.63;;;24.33;;
29358;SDS011;16347;53.232;6.556;2024-03-08T01:32:16;55.97;;;26.13;;
29358;SDS011;16347;53.232;6.556;2024-03-08T01:34:45;53.10;;;24.70;;
29358;SDS011;16347;53.232;6.556;2024-03-08T01:37:13;54.92;;;23.73;;
29358;SDS011;16347;53.232;6.556;2024-03-08T01:39:41;48.92;;;23.50;;
29358;SDS011;16347;53.232;6.556;2024-03-08T01:42:09;53.00;;;24.73;;
29358;SDS011;16347;53.232;6.556;2024-03-08T01:44:40;56.28;;;25.45;;
29358;SDS011;16347;53.232;6.556;2024-03-08T01:47:10;59.40;;;26.20;;
29358;SDS011;16347;53.232;6.556;2024-03-08T01:49:37;52.95;;;22.02;;
29358;SDS011;16347;53.232;6.556;2024-03-08T01:52:06;55.40;;;24.48;;
29358;SDS011;16347;53.232;6.556;2024-03-08T01:54:33;60.13;;;24.23;;
29358;SDS011;16347;53.232;6.556;2024-03-08T01:57:02;51.03;;;24.42;;
29358;SDS011;16347;53.232;6.556;2024-03-08T01:59:31;54.53;;;23.73;;
29358;SDS011;16347;53.232;6.556;2024-03-08T02:02:01;53.70;;;24.65;;
29358;SDS011;16347;53.232;6.556;2024-03-08T02:04:30;52.45;;;24.48;;
29358;SDS011;16347;53.232;6.556;2024-03-08T02:06:58;54.83;;;23.80;;
29358;SDS011;16347;53.232;6.556;2024-03-08T02:09:27;56.90;;;23.63;;
29358;SDS011;16347;53.232;6.556;2024-03-08T02:11:55;59.05;;;24.02;;
29358;SDS011;16347;53.232;6.556;2024-03-08T02:14:29;49.72;;;23.98;;
29358;SDS011;16347;53.232;6.556;2024-03-08T02:17:01;54.72;;;24.58;;
29358;SDS011;16347;53.232;6.556;2024-03-08T02:19:29;58.65;;;24.80;;
29358;SDS011;16347;53.232;6.556;2024-03-08T02:22:00;54.75;;;23.80;;
29358;SDS011;16347;53.232;6.556;2024-03-08T02:24:31;50.67;;;21.75;;
29358;SDS011;16347;53.232;6.556;2024-03-08T02:26:59;54.28;;;24.13;;
29358;SDS011;16347;53.232;6.556;2024-03-08T02:29:28;52.85;;;23.95;;
29358;SDS011;16347;53.232;6.556;2024-03-08T02:31:56;52.28;;;22.42;;
29358;SDS011;16347;53.232;6.556;2024-03-08T02:34:24;52.00;;;22.75;;
29358;SDS011;16347;53.232;6.556;2024-03-08T02:36:52;47.90;;;23.48;;
29358;SDS011;16347;53.232;6.556;2024-03-08T02:39:21;52.53;;;22.98;;
29358;SDS011;16347;53.232;6.556;2024-03-08T02:41:49;51.08;;;21.13;;
29358;SDS011;16347;53.232;6.556;2024-03-08T02:44:17;51.97;;;23.35;;
29358;SDS011;16347;53.232;6.556;2024-03-08T02:46:48;40.88;;;21.17;;
29358;SDS011;16347;53.232;6.556;2024-03-08T02:49:17;45.03;;;21.40;;
29358;SDS011;16347;53.232;6.556;2024-03-08T02:51:44;46.67;;;21.50;;
29358;SDS011;16347;53.232;6.556;2024-03-08T02:54:12;44.80;;;20.30;;
29358;SDS011;16347;53.232;6.556;2024-03-08T02:56:42;45.60;;;21.92;;
29358;SDS011;16347;53.232;6.556;2024-03-08T02:59:10;45.97;;;20.35;;
29358;SDS011;16347;53.232;6.556;2024-03-08T03:01:38;49.53;;;22.17;;
29358;SDS011;16347;53.232;6.556;2024-03-08T03:04:07;46.45;;;20.60;;
29358;SDS011;16347;53.232;6.556;2024-03-08T03:06:35;48.55;;;21.85;;
29358;SDS011;16347;53.232;6.556;2024-03-08T03:09:03;53.05;;;21.67;;
29358;SDS011;16347;53.232;6.556;2024-03-08T03:11:32;49.67;;;21.55;;
29358;SDS011;16347;53.232;6.556;2024-03-08T03:14:02;42.28;;;21.27;;
29358;SDS011;16347;53.232;6.556;2024-03-08T03:16:30;46.22;;;18.92;;
29358;SDS011;16347;53.232;6.556;2024-03-08T03:18:58;49.85;;;20.77;;
29358;SDS011;16347;53.232;6.556;2024-03-08T03:21:28;45.42;;;21.85;;
29358;SDS011;16347;53.232;6.556;2024-03-08T03:23:58;52.60;;;22.23;;
29358;SDS011;16347;53.232;6.556;2024-03-08T03:26:26;45.45;;;22.25;;
29358;SDS011;16347;53.232;6.556;2024-03-08T03:28:54;45.97;;;21.88;;
29358;SDS011;16347;53.232;6.556;2024-03-08T03:31:25;45.95;;;19.92;;
29358;SDS011;16347;53.232;6.556;2024-03-08T03:33:52;47.78;;;21.05;;
29358;SDS011;16347;53.232;6.556;2024-03-08T03:36:20;50.53;;;21.52;;
29358;SDS011;16347;53.232;6.556;2024-03-08T03:38:48;44.63;;;19.52;;
29358;SDS011;16347;53.232;6.556;2024-03-08T03:41:18;45.88;;;20.13;;
29358;SDS011;16347;53.232;6.556;2024-03-08T03:43:46;46.78;;;20.73;;
29358;SDS011;16347;53.232;6.556;2024-03-08T03:46:15;42.92;;;21.40;;
29358;SDS011;16347;53.232;6.556;2024-03-08T03:48:45;42.92;;;19.00;;
29358;SDS011;16347;53.232;6.556;2024-03-08T03:51:13;37.90;;;17.45;;
29358;SDS011;16347;53.232;6.556;2024-03-08T03:53:42;48.22;;;20.38;;
29358;SDS011;16347;53.232;6.556;2024-03-08T03:56:10;43.67;;;19.40;;
29358;SDS011;16347;53.232;6.556;2024-03-08T03:58:37;46.55;;;20.50;;
29358;SDS011;16347;53.232;6.556;2024-03-08T04:01:06;41.10;;;20.10;;
29358;SDS011;16347;53.232;6.556;2024-03-08T04:03:34;40.45;;;19.38;;
29358;SDS011;16347;53.232;6.556;2024-03-08T04:06:03;46.35;;;20.70;;
29358;SDS011;16347;53.232;6.556;2024-03-08T04:08:32;44.10;;;20.02;;
29358;SDS011;16347;53.232;6.556;2024-03-08T04:11:00;39.22;;;19.08;;
29358;SDS011;16347;53.232;6.556;2024-03-08T04:13:29;41.97;;;19.45;;
29358;SDS011;16347;53.232;6.556;2024-03-08T04:15:57;54.95;;;21.50;;
29358;SDS011;16347;53.232;6.556;2024-03-08T04:18:25;41.50;;;19.35;;
29358;SDS011;16347;53.232;6.556;2024-03-08T04:20:54;42.42;;;20.30;;
29358;SDS011;16347;53.232;6.556;2024-03-08T04:23:24;42.25;;;19.50;;
29358;SDS011;16347;53.232;6.556;2024-03-08T04:25:52;42.25;;;19.13;;
29358;SDS011;16347;53.232;6.556;2024-03-08T04:28:20;47.42;;;20.45;;
29358;SDS011;16347;53.232;6.556;2024-03-08T04:30:48;46.05;;;18.75;;
29358;SDS011;16347;53.232;6.556;2024-03-08T04:33:17;42.25;;;19.98;;
29358;SDS011;16347;53.232;6.556;2024-03-08T04:35:45;44.67;;;19.50;;
29358;SDS011;16347;53.232;6.556;2024-03-08T04:38:13;46.33;;;20.23;;
29358;SDS011;16347;53.232;6.556;2024-03-08T04:40:43;42.05;;;19.58;;
29358;SDS011;16347;53.232;6.556;2024-03-08T04:43:11;42.72;;;18.00;;
29358;SDS011;16347;53.232;6.556;2024-03-08T04:45:40;43.30;;;20.10;;
29358;SDS011;16347;53.232;6.556;2024-03-08T04:48:10;43.30;;;20.13;;
29358;SDS011;16347;53.232;6.556;2024-03-08T04:50:39;44.42;;;19.77;;
29358;SDS011;16347;53.232;6.556;2024-03-08T04:53:07;50.42;;;20.50;;
29358;SDS011;16347;53.232;6.556;2024-03-08T04:55:35;44.60;;;19.55;;
29358;SDS011;16347;53.232;6.556;2024-03-08T04:58:05;44.33;;;19.75;;
29358;SDS011;16347;53.232;6.556;2024-03-08T05:00:34;43.38;;;19.27;;
29358;SDS011;16347;53.232;6.556;2024-03-08T05:03:02;44.53;;;20.17;;
29358;SDS011;16347;53.232;6.556;2024-03-08T05:05:31;42.70;;;18.67;;
29358;SDS011;16347;53.232;6.556;2024-03-08T05:07:59;47.70;;;20.05;;
29358;SDS011;16347;53.232;6.556;2024-03-08T05:10:29;40.17;;;18.90;;
29358;SDS011;16347;53.232;6.556;2024-03-08T05:12:57;36.70;;;17.65;;
29358;SDS011;16347;53.232;6.556;2024-03-08T05:15:26;42.13;;;19.00;;
29358;SDS011;16347;53.232;6.556;2024-03-08T05:17:54;44.53;;;17.70;;
29358;SDS011;16347;53.232;6.556;2024-03-08T05:20:24;48.10;;;19.08;;
29358;SDS011;16347;53.232;6.556;2024-03-08T05:22:52;42.08;;;18.70;;
29358;SDS011;16347;53.232;6.556;2024-03-08T05:25:20;44.17;;;19.65;;
29358;SDS011;16347;53.232;6.556;2024-03-08T05:27:48;43.58;;;18.33;;
29358;SDS011;16347;53.232;6.556;2024-03-08T05:30:16;38.20;;;18.48;;
29358;SDS011;16347;53.232;6.556;2024-03-08T05:32:46;45.67;;;18.00;;
29358;SDS011;16347;53.232;6.556;2024-03-08T05:35:14;42.80;;;18.73;;
29358;SDS011;16347;53.232;6.556;2024-03-08T05:37:43;42.58;;;19.05;;
29358;SDS011;16347;53.232;6.556;2024-03-08T05:40:12;39.80;;;17.67;;
29358;SDS011;16347;53.232;6.556;2024-03-08T05:42:44;46.28;;;18.92;;
29358;SDS011;16347;53.232;6.556;2024-03-08T05:45:12;42.40;;;18.30;;
29358;SDS011;16347;53.232;6.556;2024-03-08T05:47:41;41.50;;;19.27;;
29358;SDS011;16347;53.232;6.556;2024-03-08T05:50:11;42.20;;;19.95;;
29358;SDS011;16347;53.232;6.556;2024-03-08T05:52:39;40.83;;;18.58;;
29358;SDS011;16347;53.232;6.556;2024-03-08T05:55:07;46.17;;;19.92;;
29358;SDS011;16347;53.232;6.556;2024-03-08T05:57:36;38.85;;;17.67;;
29358;SDS011;16347;53.232;6.556;2024-03-08T06:00:07;40.80;;;18.35;;
29358;SDS011;16347;53.232;6.556;2024-03-08T06:02:40;44.88;;;19.08;;
29358;SDS011;16347;53.232;6.556;2024-03-08T06:05:09;40.08;;;18.13;;
29358;SDS011;16347;53.232;6.556;2024-03-08T06:07:38;48.03;;;19.67;;
29358;SDS011;16347;53.232;6.556;2024-03-08T06:10:08;43.80;;;18.38;;
29358;SDS011;16347;53.232;6.556;2024-03-08T06:12:39;38.00;;;17.45;;
29358;SDS011;16347;53.232;6.556;2024-03-08T06:15:08;46.42;;;19.90;;
29358;SDS011;16347;53.232;6.556;2024-03-08T06:17:41;38.83;;;18.30;;
29358;SDS011;16347;53.232;6.556;2024-03-08T06:20:11;35.78;;;17.35;;
29358;SDS011;16347;53.232;6.556;2024-03-08T06:22:40;42.45;;;18.27;;
29358;SDS011;16347;53.232;6.556;2024-03-08T06:25:08;45.28;;;19.00;;
29358;SDS011;16347;53.232;6.556;2024-03-08T06:27:37;40.88;;;19.13;;
29358;SDS011;16347;53.232;6.556;2024-03-08T06:30:06;45.35;;;19.90;;
29358;SDS011;16347;53.232;6.556;2024-03-08T06:32:36;41.70;;;17.23;;
29358;SDS011;16347;53.232;6.556;2024-03-08T06:35:05;40.53;;;18.55;;
29358;SDS011;16347;53.232;6.556;2024-03-08T06:37:36;37.70;;;17.00;;
29358;SDS011;16347;53.232;6.556;2024-03-08T06:40:04;38.83;;;17.20;;
29358;SDS011;16347;53.232;6.556;2024-03-08T06:42:34;47.08;;;19.38;;
29358;SDS011;16347;53.232;6.556;2024-03-08T06:45:03;44.78;;;19.40;;
29358;SDS011;16347;53.232;6.556;2024-03-08T06:47:32;44.35;;;18.63;;
29358;SDS011;16347;53.232;6.556;2024-03-08T06:50:01;43.97;;;17.55;;
29358;SDS011;16347;53.232;6.556;2024-03-08T06:52:30;47.42;;;18.38;;
29358;SDS011;16347;53.232;6.556;2024-03-08T06:54:59;39.08;;;17.38;;
29358;SDS011;16347;53.232;6.556;2024-03-08T06:57:28;36.22;;;17.30;;
29358;SDS011;16347;53.232;6.556;2024-03-08T06:59:57;42.35;;;18.73;;
29358;SDS011;16347;53.232;6.556;2024-03-08T07:02:25;44.78;;;17.60;;
29358;SDS011;16347;53.232;6.556;2024-03-08T07:04:53;43.92;;;19.08;;
29358;SDS011;16347;53.232;6.556;2024-03-08T07:07:22;36.35;;;17.80;;
29358;SDS011;16347;53.232;6.556;2024-03-08T07:09:50;43.50;;;18.42;;
29358;SDS011;16347;53.232;6.556;2024-03-08T07:12:20;37.58;;;18.23;;
29358;SDS011;16347;53.232;6.556;2024-03-08T07:14:49;40.28;;;18.63;;
29358;SDS011;16347;53.232;6.556;2024-03-08T07:17:17;42.67;;;17.73;;
29358;SDS011;16347;53.232;6.556;2024-03-08T07:19:45;41.28;;;18.08;;
29358;SDS011;16347;53.232;6.556;2024-03-08T07:22:13;41.30;;;17.65;;
29358;SDS011;16347;53.232;6.556;2024-03-08T07:24:41;41.05;;;17.85;;
29358;SDS011;16347;53.232;6.556;2024-03-08T07:27:32;38.50;;;17.92;;
29358;SDS011;16347;53.232;6.556;2024-03-08T07:30:00;42.53;;;18.48;;
29358;SDS011;16347;53.232;6.556;2024-03-08T07:32:31;37.20;;;18.20;;
29358;SDS011;16347;53.232;6.556;2024-03-08T07:35:01;50.50;;;20.45;;
29358;SDS011;16347;53.232;6.556;2024-03-08T07:37:30;40.00;;;17.75;;
29358;SDS011;16347;53.232;6.556;2024-03-08T07:39:59;44.90;;;18.52;;
29358;SDS011;16347;53.232;6.556;2024-03-08T07:42:26;46.13;;;18.45;;
29358;SDS011;16347;53.232;6.556;2024-03-08T07:44:56;40.92;;;18.35;;
29358;SDS011;16347;53.232;6.556;2024-03-08T07:47:24;47.45;;;19.65;;
29358;SDS011;16347;53.232;6.556;2024-03-08T07:49:52;40.70;;;20.30;;
29358;SDS011;16347;53.232;6.556;2024-03-08T07:52:21;40.90;;;18.23;;
29358;SDS011;16347;53.232;6.556;2024-03-08T07:54:50;38.97;;;19.25;;
29358;SDS011;16347;53.232;6.556;2024-03-08T07:57:18;43.45;;;17.63;;
29358;SDS011;16347;53.232;6.556;2024-03-08T07:59:47;40.35;;;18.52;;
29358;SDS011;16347;53.232;6.556;2024-03-08T08:02:17;46.72;;;21.33;;
29358;SDS011;16347;53.232;6.556;2024-03-08T08:04:45;40.63;;;19.02;;
29358;SDS011;16347;53.232;6.556;2024-03-08T08:07:13;44.53;;;20.77;;
29358;SDS011;16347;53.232;6.556;2024-03-08T08:09:42;41.13;;;19.25;;
29358;SDS011;16347;53.232;6.556;2024-03-08T08:12:10;39.67;;;18.73;;
29358;SDS011;16347;53.232;6.556;2024-03-08T08:14:38;46.83;;;21.50;;
29358;SDS011;16347;53.232;6.556;2024-03-08T08:17:07;50.13;;;21.10;;
29358;SDS011;16347;53.232;6.556;2024-03-08T08:22:43;41.75;;;18.88;;
29358;SDS011;16347;53.232;6.556;2024-03-08T08:25:11;41.63;;;19.40;;
29358;SDS011;16347;53.232;6.556;2024-03-08T08:27:42;50.63;;;22.98;;
29358;SDS011;16347;53.232;6.556;2024-03-08T08:30:11;45.08;;;20.77;;
29358;SDS011;16347;53.232;6.556;2024-03-08T08:32:40;39.42;;;19.40;;
29358;SDS011;16347;53.232;6.556;2024-03-08T08:35:09;41.80;;;18.70;;
29358;SDS011;16347;53.232;6.556;2024-03-08T08:37:39;44.03;;;22.02;;
29358;SDS011;16347;53.232;6.556;2024-03-08T08:40:09;40.92;;;20.38;;
29358;SDS011;16347;53.232;6.556;2024-03-08T08:42:42;46.22;;;20.95;;
29358;SDS011;16347;53.232;6.556;2024-03-08T08:45:11;42.88;;;20.50;;
29358;SDS011;16347;53.232;6.556;2024-03-08T08:47:43;44.08;;;19.30;;
29358;SDS011;16347;53.232;6.556;2024-03-08T08:50:12;45.15;;;19.98;;
29358;SDS011;16347;53.232;6.556;2024-03-08T08:52:40;43.65;;;21.08;;
29358;SDS011;16347;53.232;6.556;2024-03-08T08:55:11;45.25;;;20.58;;
29358;SDS011;16347;53.232;6.556;2024-03-08T08:57:41;43.30;;;20.05;;
29358;SDS011;16347;53.232;6.556;2024-03-08T09:00:10;40.22;;;19.45;;
29358;SDS011;16347;53.232;6.556;2024-03-08T09:02:41;45.05;;;20.98;;
29358;SDS011;16347;53.232;6.556;2024-03-08T09:05:10;47.22;;;20.17;;
29358;SDS011;16347;53.232;6.556;2024-03-08T09:07:38;43.17;;;20.08;;
29358;SDS011;16347;53.232;6.556;2024-03-08T09:10:07;44.40;;;20.45;;
29358;SDS011;16347;53.232;6.556;2024-03-08T09:12:40;45.95;;;20.52;;
29358;SDS011;16347;53.232;6.556;2024-03-08T09:15:09;43.05;;;20.50;;
29358;SDS011;16347;53.232;6.556;2024-03-08T09:17:38;47.67;;;20.83;;
29358;SDS011;16347;53.232;6.556;2024-03-08T09:20:08;45.22;;;21.15;;
29358;SDS011;16347;53.232;6.556;2024-03-08T09:22:43;48.17;;;20.67;;
29358;SDS011;16347;53.232;6.556;2024-03-08T09:25:12;49.35;;;19.55;;
29358;SDS011;16347;53.232;6.556;2024-03-08T09:27:42;43.13;;;20.20;;
29358;SDS011;16347;53.232;6.556;2024-03-08T09:30:10;41.17;;;21.40;;
29358;SDS011;16347;53.232;6.556;2024-03-08T09:32:40;44.38;;;21.48;;
29358;SDS011;16347;53.232;6.556;2024-03-08T09:35:10;39.25;;;19.98;;
29358;SDS011;16347;53.232;6.556;2024-03-08T09:37:38;50.78;;;21.15;;
29358;SDS011;16347;53.232;6.556;2024-03-08T09:40:06;41.63;;;21.20;;
29358;SDS011;16347;53.232;6.556;2024-03-08T09:42:37;41.45;;;20.88;;
29358;SDS011;16347;53.232;6.556;2024-03-08T09:45:08;44.22;;;21.98;;
29358;SDS011;16347;53.232;6.556;2024-03-08T09:47:38;46.45;;;21.15;;
29358;SDS011;16347;53.232;6.556;2024-03-08T09:50:08;45.50;;;22.58;;
29358;SDS011;16347;53.232;6.556;2024-03-08T09:52:39;42.05;;;21.20;;
29358;SDS011;16347;53.232;6.556;2024-03-08T09:55:08;48.03;;;21.35;;
29358;SDS011;16347;53.232;6.556;2024-03-08T09:57:38;49.70;;;21.95;;
29358;SDS011;16347;53.232;6.556;2024-03-08T10:00:10;43.25;;;21.65;;
29358;SDS011;16347;53.232;6.556;2024-03-08T10:02:50;43.95;;;21.33;;
29358;SDS011;16347;53.232;6.556;2024-03-08T10:05:20;43.95;;;22.52;;
29358;SDS011;16347;53.232;6.556;2024-03-08T10:07:49;50.88;;;22.48;;
29358;SDS011;16347;53.232;6.556;2024-03-08T10:10:17;46.75;;;22.08;;
29358;SDS011;16347;53.232;6.556;2024-03-08T10:12:45;43.45;;;21.23;;
29358;SDS011;16347;53.232;6.556;2024-03-08T10:15:15;48.60;;;23.67;;
29358;SDS011;16347;53.232;6.556;2024-03-08T10:17:44;44.33;;;21.85;;
29358;SDS011;16347;53.232;6.556;2024-03-08T10:20:15;42.53;;;21.40;;
29358;SDS011;16347;53.232;6.556;2024-03-08T10:22:44;46.17;;;22.65;;
29358;SDS011;16347;53.232;6.556;2024-03-08T10:25:32;48.05;;;23.23;;
29358;SDS011;16347;53.232;6.556;2024-03-08T10:28:02;53.22;;;23.70;;
29358;SDS011;16347;53.232;6.556;2024-03-08T10:30:34;45.90;;;21.90;;
29358;SDS011;16347;53.232;6.556;2024-03-08T10:33:03;45.78;;;22.52;;
29358;SDS011;16347;53.232;6.556;2024-03-08T10:35:32;40.05;;;21.35;;
29358;SDS011;16347;53.232;6.556;2024-03-08T10:38:00;49.03;;;23.48;;
29358;SDS011;16347;53.232;6.556;2024-03-08T10:40:34;46.58;;;22.77;;
29358;SDS011;16347;53.232;6.556;2024-03-08T10:43:03;47.60;;;21.30;;
29358;SDS011;16347;53.232;6.556;2024-03-08T10:45:34;43.97;;;22.65;;
29358;SDS011;16347;53.232;6.556;2024-03-08T10:48:09;41.63;;;21.70;;
29358;SDS011;16347;53.232;6.556;2024-03-08T10:51:03;45.30;;;22.27;;
29358;SDS011;16347;53.232;6.556;2024-03-08T10:53:34;50.97;;;22.92;;
29358;SDS011;16347;53.232;6.556;2024-03-08T10:56:08;51.33;;;22.58;;
29358;SDS011;16347;53.232;6.556;2024-03-08T10:58:37;41.10;;;22.00;;
29358;SDS011;16347;53.232;6.556;2024-03-08T11:01:08;43.15;;;22.92;;
29358;SDS011;16347;53.232;6.556;2024-03-08T11:03:49;51.88;;;22.92;;
29358;SDS011;16347;53.232;6.556;2024-03-08T11:06:22;49.50;;;22.85;;
29358;SDS011;16347;53.232;6.556;2024-03-08T11:08:57;46.90;;;23.60;;
29358;SDS011;16347;53.232;6.556;2024-03-08T11:11:26;42.45;;;22.15;;
29358;SDS011;16347;53.232;6.556;2024-03-08T11:14:00;45.00;;;22.05;;
29358;SDS011;16347;53.232;6.556;2024-03-08T11:16:38;48.20;;;23.65;;
29358;SDS011;16347;53.232;6.556;2024-03-08T11:19:23;45.78;;;22.20;;
29358;SDS011;16347;53.232;6.556;2024-03-08T11:21:58;43.92;;;23.70;;
29358;SDS011;16347;53.232;6.556;2024-03-08T11:24:27;49.00;;;23.05;;
29358;SDS011;16347;53.232;6.556;2024-03-08T11:26:56;47.80;;;23.15;;
29358;SDS011;16347;53.232;6.556;2024-03-08T11:29:33;61.47;;;24.27;;
29358;SDS011;16347;53.232;6.556;2024-03-08T11:32:11;41.70;;;22.35;;
29358;SDS011;16347;53.232;6.556;2024-03-08T11:34:40;52.72;;;23.63;;
29358;SDS011;16347;53.232;6.556;2024-03-08T11:37:11;49.70;;;25.10;;
29358;SDS011;16347;53.232;6.556;2024-03-08T11:39:45;43.85;;;21.95;;
29358;SDS011;16347;53.232;6.556;2024-03-08T11:44:44;47.30;;;23.08;;
29358;SDS011;16347;53.232;6.556;2024-03-08T11:47:14;42.42;;;21.80;;
29358;SDS011;16347;53.232;6.556;2024-03-08T11:49:42;44.58;;;22.98;;
29358;SDS011;16347;53.232;6.556;2024-03-08T11:52:14;38.80;;;21.17;;
29358;SDS011;16347;53.232;6.556;2024-03-08T11:54:47;67.78;;;23.20;;
29358;SDS011;16347;53.232;6.556;2024-03-08T11:57:20;38.22;;;21.05;;
29358;SDS011;16347;53.232;6.556;2024-03-08T11:59:50;44.95;;;21.77;;
29358;SDS011;16347;53.232;6.556;2024-03-08T12:02:24;46.00;;;23.07;;
29358;SDS011;16347;53.232;6.556;2024-03-08T12:04:55;46.15;;;23.35;;
29358;SDS011;16347;53.232;6.556;2024-03-08T12:07:27;44.90;;;22.77;;
29358;SDS011;16347;53.232;6.556;2024-03-08T12:10:15;43.67;;;22.80;;
29358;SDS011;16347;53.232;6.556;2024-03-08T12:12:45;42.97;;;23.35;;
29358;SDS011;16347;53.232;6.556;2024-03-08T12:15:15;47.45;;;22.15;;
29358;SDS011;16347;53.232;6.556;2024-03-08T12:17:47;43.08;;;22.25;;
29358;SDS011;16347;53.232;6.556;2024-03-08T12:20:20;40.72;;;22.00;;
29358;SDS011;16347;53.232;6.556;2024-03-08T12:22:50;42.97;;;22.65;;
29358;SDS011;16347;53.232;6.556;2024-03-08T12:25:20;46.35;;;24.00;;
29358;SDS011;16347;53.232;6.556;2024-03-08T12:27:48;42.83;;;21.92;;
29358;SDS011;16347;53.232;6.556;2024-03-08T12:30:19;45.35;;;23.42;;
29358;SDS011;16347;53.232;6.556;2024-03-08T12:32:53;43.25;;;23.00;;
29358;SDS011;16347;53.232;6.556;2024-03-08T12:35:25;41.22;;;21.25;;
29358;SDS011;16347;53.232;6.556;2024-03-08T12:37:54;46.20;;;22.70;;
29358;SDS011;16347;53.232;6.556;2024-03-08T12:40:25;41.88;;;22.33;;
29358;SDS011;16347;53.232;6.556;2024-03-08T12:42:54;42.20;;;22.23;;
29358;SDS011;16347;53.232;6.556;2024-03-08T12:45:24;41.35;;;22.95;;
29358;SDS011;16347;53.232;6.556;2024-03-08T12:47:55;46.55;;;23.10;;
29358;SDS011;16347;53.232;6.556;2024-03-08T12:50:25;43.90;;;22.80;;
29358;SDS011;16347;53.232;6.556;2024-03-08T12:52:53;61.08;;;23.13;;
29358;SDS011;16347;53.232;6.556;2024-03-08T12:55:22;44.25;;;22.38;;
29358;SDS011;16347;53.232;6.556;2024-03-08T12:57:51;42.45;;;21.30;;
29358;SDS011;16347;53.232;6.556;2024-03-08T13:00:20;46.30;;;23.27;;
29358;SDS011;16347;53.232;6.556;2024-03-08T13:02:50;43.28;;;22.02;;
29358;SDS011;16347;53.232;6.556;2024-03-08T13:05:20;41.13;;;21.98;;
29358;SDS011;16347;53.232;6.556;2024-03-08T13:07:51;35.67;;;20.40;;
29358;SDS011;16347;53.232;6.556;2024-03-08T13:10:19;42.03;;;21.70;;
29358;SDS011;16347;53.232;6.556;2024-03-08T13:12:49;43.42;;;22.10;;
29358;SDS011;16347;53.232;6.556;2024-03-08T13:15:20;44.55;;;20.63;;
29358;SDS011;16347;53.232;6.556;2024-03-08T13:17:48;35.80;;;21.17;;
29358;SDS011;16347;53.232;6.556;2024-03-08T13:20:17;36.45;;;19.33;;
29358;SDS011;16347;53.232;6.556;2024-03-08T13:22:58;34.75;;;19.75;;
29358;SDS011;16347;53.232;6.556;2024-03-08T13:25:28;38.92;;;21.33;;
29358;SDS011;16347;53.232;6.556;2024-03-08T13:27:57;38.53;;;19.70;;
29358;SDS011;16347;53.232;6.556;2024-03-08T13:30:27;36.65;;;19.92;;
29358;SDS011;16347;53.232;6.556;2024-03-08T13:32:57;34.60;;;18.73;;
29358;SDS011;16347;53.232;6.556;2024-03-08T13:35:26;41.88;;;20.67;;
29358;SDS011;16347;53.232;6.556;2024-03-08T13:37:58;35.88;;;20.08;;
29358;SDS011;16347;53.232;6.556;2024-03-08T13:40:29;33.55;;;18.27;;
29358;SDS011;16347;53.232;6.556;2024-03-08T13:42:59;32.92;;;19.25;;
29358;SDS011;16347;53.232;6.556;2024-03-08T13:45:28;35.38;;;17.98;;
29358;SDS011;16347;53.232;6.556;2024-03-08T13:47:56;34.92;;;19.13;;
29358;SDS011;16347;53.232;6.556;2024-03-08T13:50:24;34.30;;;18.40;;
29358;SDS011;16347;53.232;6.556;2024-03-08T13:52:53;32.05;;;17.80;;
29358;SDS011;16347;53.232;6.556;2024-03-08T13:55:23;33.00;;;18.85;;
29358;SDS011;16347;53.232;6.556;2024-03-08T13:57:53;34.28;;;18.27;;
29358;SDS011;16347;53.232;6.556;2024-03-08T14:00:24;34.38;;;19.05;;
29358;SDS011;16347;53.232;6.556;2024-03-08T14:02:54;36.88;;;18.48;;
29358;SDS011;16347;53.232;6.556;2024-03-08T14:05:22;31.13;;;18.17;;
29358;SDS011;16347;53.232;6.556;2024-03-08T14:07:50;30.33;;;18.00;;
29358;SDS011;16347;53.232;6.556;2024-03-08T14:10:21;35.45;;;17.70;;
29358;SDS011;16347;53.232;6.556;2024-03-08T14:12:51;37.03;;;18.80;;
29358;SDS011;16347;53.232;6.556;2024-03-08T14:15:20;32.90;;;18.33;;
29358;SDS011;16347;53.232;6.556;2024-03-08T14:17:52;31.52;;;17.15;;
29358;SDS011;16347;53.232;6.556;2024-03-08T14:20:20;34.80;;;17.73;;
29358;SDS011;16347;53.232;6.556;2024-03-08T14:22:52;31.73;;;17.20;;
29358;SDS011;16347;53.232;6.556;2024-03-08T14:25:21;38.45;;;17.65;;
29358;SDS011;16347;53.232;6.556;2024-03-08T14:27:52;36.50;;;18.27;;
29358;SDS011;16347;53.232;6.556;2024-03-08T14:30:25;34.13;;;18.30;;
29358;SDS011;16347;53.232;6.556;2024-03-08T14:33:02;31.05;;;17.80;;
29358;SDS011;16347;53.232;6.556;2024-03-08T14:35:32;42.15;;;17.55;;
29358;SDS011;16347;53.232;6.556;2024-03-08T14:38:01;32.88;;;18.48;;
29358;SDS011;16347;53.232;6.556;2024-03-08T14:40:29;36.97;;;17.75;;